sensor_id;sensor_type;location;lat;lon;timestamp;temperature;humidity
45685;DHT22;46836;48.388;16.210;2023-05-18T00:00:24;10.30;99.90
45685;DHT22;46836;48.388;16.210;2023-05-18T00:02:51;10.30;99.90
45685;DHT22;46836;48.388;16.210;2023-05-18T00:05:18;10.30;99.90
45685;DHT22;46836;48.388;16.210;2023-05-18T00:07:45;10.30;99.90
45685;DHT22;46836;48.388;16.210;2023-05-18T00:10:12;10.30;99.90
45685;DHT22;46836;48.388;16.210;2023-05-18T00:12:40;10.30;99.90
45685;DHT22;46836;48.388;16.210;2023-05-18T00:15:07;10.30;99.90
45685;DHT22;46836;48.388;16.210;2023-05-18T00:17:36;10.30;99.90
45685;DHT22;46836;48.388;16.210;2023-05-18T00:20:04;10.20;99.90
45685;DHT22;46836;48.388;16.210;2023-05-18T00:22:31;10.20;99.90
45685;DHT22;46836;48.388;16.210;2023-05-18T00:24:58;10.20;99.90
45685;DHT22;46836;48.388;16.210;2023-05-18T00:27:25;10.20;99.90
45685;DHT22;46836;48.388;16.210;2023-05-18T00:29:52;10.20;99.90
45685;DHT22;46836;48.388;16.210;2023-05-18T00:32:19;10.20;99.90
45685;DHT22;46836;48.388;16.210;2023-05-18T00:34:47;10.20;99.90
45685;DHT22;46836;48.388;16.210;2023-05-18T00:37:14;10.20;99.90
45685;DHT22;46836;48.388;16.210;2023-05-18T00:39:41;10.10;99.90
45685;DHT22;46836;48.388;16.210;2023-05-18T00:42:08;10.10;99.90
45685;DHT22;46836;48.388;16.210;2023-05-18T00:44:35;10.10;99.90
45685;DHT22;46836;48.388;16.210;2023-05-18T00:47:02;10.00;99.90
45685;DHT22;46836;48.388;16.210;2023-05-18T00:49:29;10.00;99.90
45685;DHT22;46836;48.388;16.210;2023-05-18T00:51:57;10.00;99.90
45685;DHT22;46836;48.388;16.210;2023-05-18T00:54:24;10.00;99.90
45685;DHT22;46836;48.388;16.210;2023-05-18T00:56:52;10.00;99.90
45685;DHT22;46836;48.388;16.210;2023-05-18T00:59:19;10.00;99.90
45685;DHT22;46836;48.388;16.210;2023-05-18T01:01:47;10.00;99.90
45685;DHT22;46836;48.388;16.210;2023-05-18T01:04:15;10.00;99.90
45685;DHT22;46836;48.388;16.210;2023-05-18T01:06:42;10.00;99.90
45685;DHT22;46836;48.388;16.210;2023-05-18T01:09:10;10.00;99.90
45685;DHT22;46836;48.388;16.210;2023-05-18T01:11:51;10.00;99.90
45685;DHT22;46836;48.388;16.210;2023-05-18T01:14:32;10.10;99.90
45685;DHT22;46836;48.388;16.210;2023-05-18T01:17:11;10.10;99.90
45685;DHT22;46836;48.388;16.210;2023-05-18T01:20:05;10.10;99.90
45685;DHT22;46836;48.388;16.210;2023-05-18T01:23:05;10.10;99.90
45685;DHT22;46836;48.388;16.210;2023-05-18T01:28:28;10.10;99.90
45685;DHT22;46836;48.388;16.210;2023-05-18T01:30:57;10.10;99.90
45685;DHT22;46836;48.388;16.210;2023-05-18T01:33:24;10.10;99.90
45685;DHT22;46836;48.388;16.210;2023-05-18T01:35:52;10.10;99.90
45685;DHT22;46836;48.388;16.210;2023-05-18T01:38:22;10.00;99.90
45685;DHT22;46836;48.388;16.210;2023-05-18T01:44:00;10.00;99.90
45685;DHT22;46836;48.388;16.210;2023-05-18T01:52:05;10.00;99.90
45685;DHT22;46836;48.388;16.210;2023-05-18T01:54:36;10.00;99.90
45685;DHT22;46836;48.388;16.210;2023-05-18T01:57:06;10.00;99.90
45685;DHT22;46836;48.388;16.210;2023-05-18T01:59:34;10.00;99.90
45685;DHT22;46836;48.388;16.210;2023-05-18T02:02:03;10.00;99.90
45685;DHT22;46836;48.388;16.210;2023-05-18T02:04:31;10.00;99.90
45685;DHT22;46836;48.388;16.210;2023-05-18T02:06:58;10.00;99.90
45685;DHT22;46836;48.388;16.210;2023-05-18T02:09:25;10.00;99.90
45685;DHT22;46836;48.388;16.210;2023-05-18T02:11:52;10.00;99.90
45685;DHT22;46836;48.388;16.210;2023-05-18T02:14:19;10.00;99.90
45685;DHT22;46836;48.388;16.210;2023-05-18T02:16:47;10.00;99.90
45685;DHT22;46836;48.388;16.210;2023-05-18T02:19:19;10.00;99.90
45685;DHT22;46836;48.388;16.210;2023-05-18T02:21:47;10.00;99.90
45685;DHT22;46836;48.388;16.210;2023-05-18T02:24:14;10.00;99.90
45685;DHT22;46836;48.388;16.210;2023-05-18T02:26:44;10.00;99.90
45685;DHT22;46836;48.388;16.210;2023-05-18T02:29:12;10.00;99.90
45685;DHT22;46836;48.388;16.210;2023-05-18T02:31:40;10.00;99.90
45685;DHT22;46836;48.388;16.210;2023-05-18T02:34:08;10.00;99.90
45685;DHT22;46836;48.388;16.210;2023-05-18T02:36:36;10.00;99.90
45685;DHT22;46836;48.388;16.210;2023-05-18T02:39:06;10.00;99.90
45685;DHT22;46836;48.388;16.210;2023-05-18T02:41:34;10.00;99.90
45685;DHT22;46836;48.388;16.210;2023-05-18T02:44:05;10.00;99.90
45685;DHT22;46836;48.388;16.210;2023-05-18T02:46:32;10.00;99.90
45685;DHT22;46836;48.388;16.210;2023-05-18T02:48:59;10.00;99.90
45685;DHT22;46836;48.388;16.210;2023-05-18T02:51:26;10.00;99.90
45685;DHT22;46836;48.388;16.210;2023-05-18T02:53:53;10.00;99.90
45685;DHT22;46836;48.388;16.210;2023-05-18T02:56:20;10.00;99.90
45685;DHT22;46836;48.388;16.210;2023-05-18T02:58:47;10.00;99.90
45685;DHT22;46836;48.388;16.210;2023-05-18T03:01:14;10.00;99.90
45685;DHT22;46836;48.388;16.210;2023-05-18T03:03:42;10.00;99.90
45685;DHT22;46836;48.388;16.210;2023-05-18T03:06:09;10.00;99.90
45685;DHT22;46836;48.388;16.210;2023-05-18T03:08:36;10.00;99.90
45685;DHT22;46836;48.388;16.210;2023-05-18T03:11:04;10.00;99.90
45685;DHT22;46836;48.388;16.210;2023-05-18T03:13:31;10.00;99.90
45685;DHT22;46836;48.388;16.210;2023-05-18T03:15:58;10.10;99.90
45685;DHT22;46836;48.388;16.210;2023-05-18T03:18:25;10.00;99.90
45685;DHT22;46836;48.388;16.210;2023-05-18T03:20:52;10.10;99.90
45685;DHT22;46836;48.388;16.210;2023-05-18T03:23:19;10.10;99.90
45685;DHT22;46836;48.388;16.210;2023-05-18T03:25:46;10.10;99.90
45685;DHT22;46836;48.388;16.210;2023-05-18T03:28:20;10.10;99.90
45685;DHT22;46836;48.388;16.210;2023-05-18T03:30:47;10.10;99.90
45685;DHT22;46836;48.388;16.210;2023-05-18T03:33:14;10.10;99.90
45685;DHT22;46836;48.388;16.210;2023-05-18T03:35:42;10.10;99.90
45685;DHT22;46836;48.388;16.210;2023-05-18T03:38:09;10.10;99.90
45685;DHT22;46836;48.388;16.210;2023-05-18T03:40:36;10.10;99.90
45685;DHT22;46836;48.388;16.210;2023-05-18T03:43:03;10.10;99.90
45685;DHT22;46836;48.388;16.210;2023-05-18T03:45:31;10.20;99.90
45685;DHT22;46836;48.388;16.210;2023-05-18T03:47:58;10.20;99.90
45685;DHT22;46836;48.388;16.210;2023-05-18T03:50:25;10.20;99.90
45685;DHT22;46836;48.388;16.210;2023-05-18T03:52:53;10.20;99.90
45685;DHT22;46836;48.388;16.210;2023-05-18T03:55:21;10.20;99.90
45685;DHT22;46836;48.388;16.210;2023-05-18T03:57:49;10.20;99.90
45685;DHT22;46836;48.388;16.210;2023-05-18T04:00:17;10.20;99.90
45685;DHT22;46836;48.388;16.210;2023-05-18T04:02:44;10.20;99.90
45685;DHT22;46836;48.388;16.210;2023-05-18T04:05:12;10.20;99.90
45685;DHT22;46836;48.388;16.210;2023-05-18T04:07:40;10.20;99.90
45685;DHT22;46836;48.388;16.210;2023-05-18T04:10:13;10.20;99.90
45685;DHT22;46836;48.388;16.210;2023-05-18T04:12:40;10.20;99.90
45685;DHT22;46836;48.388;16.210;2023-05-18T04:15:07;10.20;99.90
45685;DHT22;46836;48.388;16.210;2023-05-18T04:17:35;10.20;99.90
45685;DHT22;46836;48.388;16.210;2023-05-18T04:20:02;10.20;99.90
45685;DHT22;46836;48.388;16.210;2023-05-18T04:22:43;10.20;99.90
45685;DHT22;46836;48.388;16.210;2023-05-18T04:25:15;10.20;99.90
45685;DHT22;46836;48.388;16.210;2023-05-18T04:27:43;10.20;99.90
45685;DHT22;46836;48.388;16.210;2023-05-18T04:30:17;10.20;99.90
45685;DHT22;46836;48.388;16.210;2023-05-18T04:32:44;10.20;99.90
45685;DHT22;46836;48.388;16.210;2023-05-18T04:35:11;10.20;99.90
45685;DHT22;46836;48.388;16.210;2023-05-18T04:37:39;10.20;99.90
45685;DHT22;46836;48.388;16.210;2023-05-18T04:40:09;10.20;99.90
45685;DHT22;46836;48.388;16.210;2023-05-18T04:42:40;10.20;99.90
45685;DHT22;46836;48.388;16.210;2023-05-18T04:45:15;10.30;99.90
45685;DHT22;46836;48.388;16.210;2023-05-18T04:47:47;10.30;99.90
45685;DHT22;46836;48.388;16.210;2023-05-18T04:50:21;10.30;99.90
45685;DHT22;46836;48.388;16.210;2023-05-18T04:52:52;10.30;99.90
45685;DHT22;46836;48.388;16.210;2023-05-18T04:55:24;10.30;99.90
45685;DHT22;46836;48.388;16.210;2023-05-18T04:57:55;10.30;99.90
45685;DHT22;46836;48.388;16.210;2023-05-18T05:00:25;10.30;99.90
45685;DHT22;46836;48.388;16.210;2023-05-18T05:02:52;10.30;99.90
45685;DHT22;46836;48.388;16.210;2023-05-18T05:05:21;10.30;99.90
45685;DHT22;46836;48.388;16.210;2023-05-18T05:07:50;10.30;99.90
45685;DHT22;46836;48.388;16.210;2023-05-18T05:10:18;10.40;99.90
45685;DHT22;46836;48.388;16.210;2023-05-18T05:12:48;10.30;99.90
45685;DHT22;46836;48.388;16.210;2023-05-18T05:15:17;10.30;99.90
45685;DHT22;46836;48.388;16.210;2023-05-18T05:17:46;10.30;99.90
45685;DHT22;46836;48.388;16.210;2023-05-18T05:20:14;10.30;99.90
45685;DHT22;46836;48.388;16.210;2023-05-18T05:22:41;10.30;99.90
45685;DHT22;46836;48.388;16.210;2023-05-18T05:25:09;10.40;99.90
45685;DHT22;46836;48.388;16.210;2023-05-18T05:27:36;10.40;99.90
45685;DHT22;46836;48.388;16.210;2023-05-18T05:30:03;10.40;99.90
45685;DHT22;46836;48.388;16.210;2023-05-18T05:32:30;10.40;99.90
45685;DHT22;46836;48.388;16.210;2023-05-18T05:34:58;10.40;99.90
45685;DHT22;46836;48.388;16.210;2023-05-18T05:37:25;10.40;99.90
45685;DHT22;46836;48.388;16.210;2023-05-18T05:39:52;10.40;99.90
45685;DHT22;46836;48.388;16.210;2023-05-18T05:42:19;10.40;99.90
45685;DHT22;46836;48.388;16.210;2023-05-18T05:44:46;10.40;99.90
45685;DHT22;46836;48.388;16.210;2023-05-18T05:47:13;10.40;99.90
45685;DHT22;46836;48.388;16.210;2023-05-18T05:49:40;10.40;99.90
45685;DHT22;46836;48.388;16.210;2023-05-18T05:52:07;10.40;99.90
45685;DHT22;46836;48.388;16.210;2023-05-18T05:54:34;10.40;99.90
45685;DHT22;46836;48.388;16.210;2023-05-18T05:57:02;10.40;99.90
45685;DHT22;46836;48.388;16.210;2023-05-18T05:59:29;10.40;99.90
45685;DHT22;46836;48.388;16.210;2023-05-18T06:01:56;10.50;99.90
45685;DHT22;46836;48.388;16.210;2023-05-18T06:04:24;10.50;99.90
45685;DHT22;46836;48.388;16.210;2023-05-18T06:06:51;10.50;99.90
45685;DHT22;46836;48.388;16.210;2023-05-18T06:09:18;10.50;99.90
45685;DHT22;46836;48.388;16.210;2023-05-18T06:11:46;10.50;99.90
45685;DHT22;46836;48.388;16.210;2023-05-18T06:14:13;10.50;99.90
45685;DHT22;46836;48.388;16.210;2023-05-18T06:16:40;10.50;99.90
45685;DHT22;46836;48.388;16.210;2023-05-18T06:19:07;10.60;99.90
45685;DHT22;46836;48.388;16.210;2023-05-18T06:21:35;10.60;99.90
45685;DHT22;46836;48.388;16.210;2023-05-18T06:24:02;10.60;99.90
45685;DHT22;46836;48.388;16.210;2023-05-18T06:26:31;10.60;99.90
45685;DHT22;46836;48.388;16.210;2023-05-18T06:28:58;10.60;99.90
45685;DHT22;46836;48.388;16.210;2023-05-18T06:31:26;10.60;99.90
45685;DHT22;46836;48.388;16.210;2023-05-18T06:33:56;10.70;99.90
45685;DHT22;46836;48.388;16.210;2023-05-18T06:36:23;10.70;99.90
45685;DHT22;46836;48.388;16.210;2023-05-18T06:38:50;10.70;99.90
45685;DHT22;46836;48.388;16.210;2023-05-18T06:41:17;10.70;99.90
45685;DHT22;46836;48.388;16.210;2023-05-18T06:43:45;10.70;99.90
45685;DHT22;46836;48.388;16.210;2023-05-18T06:46:22;10.70;99.90
45685;DHT22;46836;48.388;16.210;2023-05-18T06:48:49;10.80;99.90
45685;DHT22;46836;48.388;16.210;2023-05-18T06:51:17;10.80;99.90
45685;DHT22;46836;48.388;16.210;2023-05-18T06:53:45;10.80;99.90
45685;DHT22;46836;48.388;16.210;2023-05-18T06:56:12;10.80;99.90
45685;DHT22;46836;48.388;16.210;2023-05-18T06:58:40;10.80;99.90
45685;DHT22;46836;48.388;16.210;2023-05-18T07:01:08;10.80;99.90
45685;DHT22;46836;48.388;16.210;2023-05-18T07:03:36;10.80;99.90
45685;DHT22;46836;48.388;16.210;2023-05-18T07:06:03;10.80;99.90
45685;DHT22;46836;48.388;16.210;2023-05-18T07:08:31;10.70;99.90
45685;DHT22;46836;48.388;16.210;2023-05-18T07:10:59;10.70;99.90
45685;DHT22;46836;48.388;16.210;2023-05-18T07:13:28;10.70;99.90
45685;DHT22;46836;48.388;16.210;2023-05-18T07:15:56;10.80;99.90
45685;DHT22;46836;48.388;16.210;2023-05-18T07:18:23;10.80;99.90
45685;DHT22;46836;48.388;16.210;2023-05-18T07:20:51;10.80;99.90
45685;DHT22;46836;48.388;16.210;2023-05-18T07:23:18;10.80;99.90
45685;DHT22;46836;48.388;16.210;2023-05-18T07:25:45;10.80;99.90
45685;DHT22;46836;48.388;16.210;2023-05-18T07:28:12;10.80;99.90
45685;DHT22;46836;48.388;16.210;2023-05-18T07:30:40;10.80;99.90
45685;DHT22;46836;48.388;16.210;2023-05-18T07:33:07;10.80;99.90
45685;DHT22;46836;48.388;16.210;2023-05-18T07:35:34;10.80;99.90
45685;DHT22;46836;48.388;16.210;2023-05-18T07:38:02;10.90;99.90
45685;DHT22;46836;48.388;16.210;2023-05-18T07:40:29;10.90;99.90
45685;DHT22;46836;48.388;16.210;2023-05-18T07:42:56;10.90;99.90
45685;DHT22;46836;48.388;16.210;2023-05-18T07:45:23;10.80;99.90
45685;DHT22;46836;48.388;16.210;2023-05-18T07:47:50;10.90;99.90
45685;DHT22;46836;48.388;16.210;2023-05-18T07:50:17;10.90;99.90
45685;DHT22;46836;48.388;16.210;2023-05-18T07:52:44;10.90;99.90
45685;DHT22;46836;48.388;16.210;2023-05-18T07:55:12;10.90;99.90
45685;DHT22;46836;48.388;16.210;2023-05-18T07:57:39;11.00;99.90
45685;DHT22;46836;48.388;16.210;2023-05-18T08:00:07;10.90;99.90
45685;DHT22;46836;48.388;16.210;2023-05-18T08:02:35;11.00;99.90
45685;DHT22;46836;48.388;16.210;2023-05-18T08:05:04;11.00;99.90
45685;DHT22;46836;48.388;16.210;2023-05-18T08:07:31;11.00;99.90
45685;DHT22;46836;48.388;16.210;2023-05-18T08:09:59;11.00;99.90
45685;DHT22;46836;48.388;16.210;2023-05-18T08:12:26;10.90;99.90
45685;DHT22;46836;48.388;16.210;2023-05-18T08:14:55;10.90;99.90
45685;DHT22;46836;48.388;16.210;2023-05-18T08:17:22;10.90;99.90
45685;DHT22;46836;48.388;16.210;2023-05-18T08:19:49;10.90;99.90
45685;DHT22;46836;48.388;16.210;2023-05-18T08:22:19;11.00;99.90
45685;DHT22;46836;48.388;16.210;2023-05-18T08:24:47;11.00;99.90
45685;DHT22;46836;48.388;16.210;2023-05-18T08:27:14;11.00;99.90
45685;DHT22;46836;48.388;16.210;2023-05-18T08:29:41;11.00;99.90
45685;DHT22;46836;48.388;16.210;2023-05-18T08:32:08;11.00;99.90
45685;DHT22;46836;48.388;16.210;2023-05-18T08:34:36;11.10;99.90
45685;DHT22;46836;48.388;16.210;2023-05-18T08:37:03;11.20;99.90
45685;DHT22;46836;48.388;16.210;2023-05-18T08:39:30;11.20;99.90
45685;DHT22;46836;48.388;16.210;2023-05-18T08:45:11;11.30;99.90
45685;DHT22;46836;48.388;16.210;2023-05-18T08:47:40;11.20;99.90
45685;DHT22;46836;48.388;16.210;2023-05-18T08:50:08;11.20;99.90
45685;DHT22;46836;48.388;16.210;2023-05-18T08:52:44;11.30;99.90
45685;DHT22;46836;48.388;16.210;2023-05-18T08:55:13;11.30;99.90
45685;DHT22;46836;48.388;16.210;2023-05-18T08:57:45;11.20;99.90
45685;DHT22;46836;48.388;16.210;2023-05-18T09:00:16;11.30;99.90
45685;DHT22;46836;48.388;16.210;2023-05-18T09:02:44;11.30;99.90
45685;DHT22;46836;48.388;16.210;2023-05-18T09:05:14;11.30;99.90
45685;DHT22;46836;48.388;16.210;2023-05-18T09:07:42;11.30;99.90
45685;DHT22;46836;48.388;16.210;2023-05-18T09:10:10;11.30;99.90
45685;DHT22;46836;48.388;16.210;2023-05-18T09:12:38;11.40;99.90
45685;DHT22;46836;48.388;16.210;2023-05-18T09:15:11;11.30;99.90
45685;DHT22;46836;48.388;16.210;2023-05-18T09:17:38;11.40;99.90
45685;DHT22;46836;48.388;16.210;2023-05-18T09:20:06;11.40;99.90
45685;DHT22;46836;48.388;16.210;2023-05-18T09:22:34;11.40;99.90
45685;DHT22;46836;48.388;16.210;2023-05-18T09:25:07;11.40;99.90
45685;DHT22;46836;48.388;16.210;2023-05-18T09:27:35;11.50;99.90
45685;DHT22;46836;48.388;16.210;2023-05-18T09:30:02;11.50;99.90
45685;DHT22;46836;48.388;16.210;2023-05-18T09:32:33;11.50;99.90
45685;DHT22;46836;48.388;16.210;2023-05-18T09:35:06;11.60;99.90
45685;DHT22;46836;48.388;16.210;2023-05-18T09:37:34;11.60;99.90
45685;DHT22;46836;48.388;16.210;2023-05-18T09:40:03;11.60;99.90
45685;DHT22;46836;48.388;16.210;2023-05-18T09:42:41;11.60;99.90
45685;DHT22;46836;48.388;16.210;2023-05-18T09:45:16;11.70;99.90
45685;DHT22;46836;48.388;16.210;2023-05-18T09:47:44;11.70;99.90
45685;DHT22;46836;48.388;16.210;2023-05-18T09:50:11;11.70;99.90
45685;DHT22;46836;48.388;16.210;2023-05-18T09:52:43;11.70;99.90
45685;DHT22;46836;48.388;16.210;2023-05-18T09:55:11;11.80;99.90
45685;DHT22;46836;48.388;16.210;2023-05-18T09:57:47;11.90;99.90
45685;DHT22;46836;48.388;16.210;2023-05-18T10:00:16;11.90;99.90
45685;DHT22;46836;48.388;16.210;2023-05-18T10:02:46;11.80;99.90
45685;DHT22;46836;48.388;16.210;2023-05-18T10:05:22;11.80;99.90
45685;DHT22;46836;48.388;16.210;2023-05-18T10:07:50;11.90;99.90
45685;DHT22;46836;48.388;16.210;2023-05-18T10:10:22;11.90;99.90
45685;DHT22;46836;48.388;16.210;2023-05-18T10:12:50;11.90;99.90
45685;DHT22;46836;48.388;16.210;2023-05-18T10:15:21;12.00;99.90
45685;DHT22;46836;48.388;16.210;2023-05-18T10:17:50;12.10;99.90
45685;DHT22;46836;48.388;16.210;2023-05-18T10:20:22;12.10;99.90
45685;DHT22;46836;48.388;16.210;2023-05-18T10:22:57;12.20;99.90
45685;DHT22;46836;48.388;16.210;2023-05-18T10:25:28;12.10;99.90
45685;DHT22;46836;48.388;16.210;2023-05-18T10:27:59;12.10;99.90
45685;DHT22;46836;48.388;16.210;2023-05-18T10:30:30;12.20;99.90
45685;DHT22;46836;48.388;16.210;2023-05-18T10:32:59;12.30;99.90
45685;DHT22;46836;48.388;16.210;2023-05-18T10:35:28;12.30;99.90
45685;DHT22;46836;48.388;16.210;2023-05-18T10:37:58;12.40;99.90
45685;DHT22;46836;48.388;16.210;2023-05-18T10:40:27;12.40;99.90
45685;DHT22;46836;48.388;16.210;2023-05-18T10:43:02;12.40;99.90
45685;DHT22;46836;48.388;16.210;2023-05-18T10:45:32;12.50;99.90
45685;DHT22;46836;48.388;16.210;2023-05-18T10:48:03;12.50;99.90
45685;DHT22;46836;48.388;16.210;2023-05-18T10:50:31;12.50;99.90
45685;DHT22;46836;48.388;16.210;2023-05-18T10:52:58;12.50;99.90
45685;DHT22;46836;48.388;16.210;2023-05-18T10:55:26;12.60;99.90
45685;DHT22;46836;48.388;16.210;2023-05-18T10:58:04;12.60;99.90
45685;DHT22;46836;48.388;16.210;2023-05-18T11:00:34;12.70;99.90
45685;DHT22;46836;48.388;16.210;2023-05-18T11:03:03;12.60;99.90
45685;DHT22;46836;48.388;16.210;2023-05-18T11:05:33;12.70;99.90
45685;DHT22;46836;48.388;16.210;2023-05-18T11:08:02;12.70;99.90
45685;DHT22;46836;48.388;16.210;2023-05-18T11:10:42;12.80;99.90
45685;DHT22;46836;48.388;16.210;2023-05-18T11:13:09;12.80;99.90
45685;DHT22;46836;48.388;16.210;2023-05-18T11:18:25;12.90;99.90
45685;DHT22;46836;48.388;16.210;2023-05-18T11:20:59;12.90;99.90
45685;DHT22;46836;48.388;16.210;2023-05-18T11:23:31;13.00;99.90
45685;DHT22;46836;48.388;16.210;2023-05-18T11:26:00;13.10;99.90
45685;DHT22;46836;48.388;16.210;2023-05-18T11:28:30;13.10;99.90
45685;DHT22;46836;48.388;16.210;2023-05-18T11:30:59;13.10;99.90
45685;DHT22;46836;48.388;16.210;2023-05-18T11:33:28;13.10;99.90
45685;DHT22;46836;48.388;16.210;2023-05-18T11:36:09;13.10;99.90
45685;DHT22;46836;48.388;16.210;2023-05-18T11:39:02;13.20;99.90
45685;DHT22;46836;48.388;16.210;2023-05-18T11:41:35;13.20;99.90
45685;DHT22;46836;48.388;16.210;2023-05-18T11:47:02;13.30;99.90
45685;DHT22;46836;48.388;16.210;2023-05-18T11:49:33;13.40;99.90
45685;DHT22;46836;48.388;16.210;2023-05-18T11:52:06;13.40;99.90
45685;DHT22;46836;48.388;16.210;2023-05-18T11:54:38;13.50;99.90
45685;DHT22;46836;48.388;16.210;2023-05-18T11:57:06;13.50;99.90
45685;DHT22;46836;48.388;16.210;2023-05-18T11:59:37;13.50;99.90
45685;DHT22;46836;48.388;16.210;2023-05-18T12:02:04;13.60;99.90
45685;DHT22;46836;48.388;16.210;2023-05-18T12:04:32;13.50;99.90
45685;DHT22;46836;48.388;16.210;2023-05-18T12:07:04;13.60;99.90
45685;DHT22;46836;48.388;16.210;2023-05-18T12:09:31;13.60;99.90
45685;DHT22;46836;48.388;16.210;2023-05-18T12:12:00;13.50;99.90
45685;DHT22;46836;48.388;16.210;2023-05-18T12:14:28;13.50;99.90
45685;DHT22;46836;48.388;16.210;2023-05-18T12:16:57;13.60;99.90
45685;DHT22;46836;48.388;16.210;2023-05-18T12:19:25;13.70;99.90
45685;DHT22;46836;48.388;16.210;2023-05-18T12:21:52;13.70;99.90
45685;DHT22;46836;48.388;16.210;2023-05-18T12:24:22;13.70;99.90
45685;DHT22;46836;48.388;16.210;2023-05-18T12:26:50;13.70;99.90
45685;DHT22;46836;48.388;16.210;2023-05-18T12:29:19;13.80;99.90
45685;DHT22;46836;48.388;16.210;2023-05-18T12:31:48;13.80;99.90
45685;DHT22;46836;48.388;16.210;2023-05-18T12:34:15;13.80;99.90
45685;DHT22;46836;48.388;16.210;2023-05-18T12:36:53;13.80;99.90
45685;DHT22;46836;48.388;16.210;2023-05-18T12:39:20;13.80;99.90
45685;DHT22;46836;48.388;16.210;2023-05-18T12:41:47;13.90;99.90
45685;DHT22;46836;48.388;16.210;2023-05-18T12:44:15;13.90;99.90
45685;DHT22;46836;48.388;16.210;2023-05-18T12:46:42;13.90;99.90
45685;DHT22;46836;48.388;16.210;2023-05-18T12:49:10;14.00;99.90
45685;DHT22;46836;48.388;16.210;2023-05-18T12:51:38;13.90;99.90
45685;DHT22;46836;48.388;16.210;2023-05-18T12:54:06;14.00;99.90
45685;DHT22;46836;48.388;16.210;2023-05-18T12:56:53;14.10;99.90
45685;DHT22;46836;48.388;16.210;2023-05-18T12:59:28;14.10;99.90
45685;DHT22;46836;48.388;16.210;2023-05-18T13:01:55;14.10;99.90
45685;DHT22;46836;48.388;16.210;2023-05-18T13:04:32;14.10;99.90
45685;DHT22;46836;48.388;16.210;2023-05-18T13:07:01;14.10;99.90
45685;DHT22;46836;48.388;16.210;2023-05-18T13:09:28;14.10;99.90
45685;DHT22;46836;48.388;16.210;2023-05-18T13:11:59;14.20;99.90
45685;DHT22;46836;48.388;16.210;2023-05-18T13:14:37;14.20;99.90
45685;DHT22;46836;48.388;16.210;2023-05-18T13:17:04;14.20;99.90
45685;DHT22;46836;48.388;16.210;2023-05-18T13:19:33;14.20;99.90
45685;DHT22;46836;48.388;16.210;2023-05-18T13:22:00;14.20;99.90
45685;DHT22;46836;48.388;16.210;2023-05-18T13:24:28;14.10;99.90
45685;DHT22;46836;48.388;16.210;2023-05-18T13:26:55;14.00;99.90
45685;DHT22;46836;48.388;16.210;2023-05-18T13:29:22;14.10;99.90
45685;DHT22;46836;48.388;16.210;2023-05-18T13:31:49;14.10;99.90
45685;DHT22;46836;48.388;16.210;2023-05-18T13:34:16;14.10;99.90
45685;DHT22;46836;48.388;16.210;2023-05-18T13:36:43;14.10;99.90
45685;DHT22;46836;48.388;16.210;2023-05-18T13:39:10;14.10;99.90
45685;DHT22;46836;48.388;16.210;2023-05-18T13:41:37;14.10;99.90
45685;DHT22;46836;48.388;16.210;2023-05-18T13:44:04;14.10;99.90
45685;DHT22;46836;48.388;16.210;2023-05-18T13:46:32;14.10;99.90
45685;DHT22;46836;48.388;16.210;2023-05-18T13:48:59;14.10;99.90
45685;DHT22;46836;48.388;16.210;2023-05-18T13:51:26;14.10;99.90
45685;DHT22;46836;48.388;16.210;2023-05-18T13:53:53;14.10;99.90
45685;DHT22;46836;48.388;16.210;2023-05-18T13:56:20;14.10;99.90
45685;DHT22;46836;48.388;16.210;2023-05-18T13:58:48;14.10;99.90
45685;DHT22;46836;48.388;16.210;2023-05-18T14:01:16;14.10;99.90
45685;DHT22;46836;48.388;16.210;2023-05-18T14:03:43;14.20;99.90
45685;DHT22;46836;48.388;16.210;2023-05-18T14:06:11;14.20;99.90
45685;DHT22;46836;48.388;16.210;2023-05-18T14:08:38;14.30;99.90
45685;DHT22;46836;48.388;16.210;2023-05-18T14:11:05;14.30;99.90
45685;DHT22;46836;48.388;16.210;2023-05-18T14:13:32;14.30;99.90
45685;DHT22;46836;48.388;16.210;2023-05-18T14:15:59;14.30;99.90
45685;DHT22;46836;48.388;16.210;2023-05-18T14:18:27;14.30;99.90
45685;DHT22;46836;48.388;16.210;2023-05-18T14:20:54;14.30;99.90
45685;DHT22;46836;48.388;16.210;2023-05-18T14:23:23;14.30;99.90
45685;DHT22;46836;48.388;16.210;2023-05-18T14:25:50;14.30;99.90
45685;DHT22;46836;48.388;16.210;2023-05-18T14:28:17;14.30;99.90
45685;DHT22;46836;48.388;16.210;2023-05-18T14:30:44;14.30;99.90
45685;DHT22;46836;48.388;16.210;2023-05-18T14:33:12;14.30;99.90
45685;DHT22;46836;48.388;16.210;2023-05-18T14:35:39;14.30;99.90
45685;DHT22;46836;48.388;16.210;2023-05-18T14:38:06;14.40;99.90
45685;DHT22;46836;48.388;16.210;2023-05-18T14:40:33;14.40;99.90
45685;DHT22;46836;48.388;16.210;2023-05-18T14:43:00;14.50;99.90
45685;DHT22;46836;48.388;16.210;2023-05-18T14:45:27;14.50;99.90
45685;DHT22;46836;48.388;16.210;2023-05-18T14:47:54;14.50;99.90
45685;DHT22;46836;48.388;16.210;2023-05-18T14:50:22;14.60;99.90
45685;DHT22;46836;48.388;16.210;2023-05-18T14:52:49;14.60;99.90
45685;DHT22;46836;48.388;16.210;2023-05-18T14:55:18;14.60;99.90
45685;DHT22;46836;48.388;16.210;2023-05-18T14:57:45;14.70;99.90
45685;DHT22;46836;48.388;16.210;2023-05-18T15:00:12;14.70;99.90
45685;DHT22;46836;48.388;16.210;2023-05-18T15:02:40;14.70;99.90
45685;DHT22;46836;48.388;16.210;2023-05-18T15:05:08;14.70;99.90
45685;DHT22;46836;48.388;16.210;2023-05-18T15:07:35;14.70;99.90
45685;DHT22;46836;48.388;16.210;2023-05-18T15:10:03;14.80;99.90
45685;DHT22;46836;48.388;16.210;2023-05-18T15:12:30;14.90;99.90
45685;DHT22;46836;48.388;16.210;2023-05-18T15:14:57;14.80;99.90
45685;DHT22;46836;48.388;16.210;2023-05-18T15:17:24;14.70;99.90
45685;DHT22;46836;48.388;16.210;2023-05-18T15:19:51;14.60;99.90
45685;DHT22;46836;48.388;16.210;2023-05-18T15:22:18;14.60;99.90
45685;DHT22;46836;48.388;16.210;2023-05-18T15:24:45;14.50;99.90
45685;DHT22;46836;48.388;16.210;2023-05-18T15:27:13;14.50;99.90
45685;DHT22;46836;48.388;16.210;2023-05-18T15:29:40;14.50;99.90
45685;DHT22;46836;48.388;16.210;2023-05-18T15:32:07;14.50;99.90
45685;DHT22;46836;48.388;16.210;2023-05-18T15:34:34;14.50;99.90
45685;DHT22;46836;48.388;16.210;2023-05-18T15:37:01;14.50;99.90
45685;DHT22;46836;48.388;16.210;2023-05-18T15:39:29;14.50;99.90
45685;DHT22;46836;48.388;16.210;2023-05-18T15:41:56;14.50;99.90
45685;DHT22;46836;48.388;16.210;2023-05-18T15:44:23;14.50;99.90